Porto Di Livorno — IFPU2 — position and weather

sailwx.info

Track history (hours):
 
Tides and Currents Weather Stations Pressure Air Temp Water Temp Dewpoint Dewpoint Depression Visibility Wind Speed Wind Dir Waves Ship Positions

Porto Di Livorno

Last reported at 2014-Sep-01 06:33 UTC. Time now 2014-Sep-01 07:35 UTC.
Position N 43°34' E 010°18'.

Length 24 m; draft 6.1 m.

Type: Tug. MMSI: 247194299.

Date/timePositionNaut miles runAvg speedWind from/ knotsBaromVisibWave heightAir tempDewpointWater temp
2014-Sep-01 06:33N 43°34' E 010°18'0 0.0
2014-Aug-31 09:33N 43°34' E 010°18'0 0.0
2014-Aug-31 08:33N 43°34' E 010°18'0 0.0
2014-Aug-31 07:33N 43°34' E 010°18'0 0.5
2014-Aug-31 06:33N 43°34' E 010°18'0 0.5
2014-Aug-31 05:33N 43°34' E 010°18'0 0.0
2014-Aug-31 04:33N 43°34' E 010°18'0 0.0
2014-Aug-30 16:25N 43°34' E 010°18'0 0.2
2014-Aug-30 15:33N 43°34' E 010°18'0 0.2
2014-Aug-30 14:33N 43°34' E 010°18'0 0.0
2014-Aug-30 13:33N 43°34' E 010°18'0 0.3
2014-Aug-30 12:33N 43°34' E 010°18'0 0.3
2014-Aug-30 11:33N 43°34' E 010°18'0 0.0
2014-Aug-30 10:33N 43°34' E 010°18'0 0.0
2014-Aug-30 09:33N 43°34' E 010°18'1 0.6
2014-Aug-30 08:33N 43°34' E 010°19'1 1.2
2014-Aug-30 07:33N 43°33' E 010°18'1 0.6
2014-Aug-30 06:33N 43°34' E 010°18'1 1.1
2014-Aug-30 05:33N 43°35' E 010°19'1 1.1
2014-Aug-30 04:33N 43°34' E 010°18'0 0.0
2014-Aug-29 15:34N 43°34' E 010°18'0 0.0
2014-Aug-29 14:34N 43°34' E 010°18'0 0.0
2014-Aug-29 13:34N 43°34' E 010°18'1 0.9
2014-Aug-29 12:33N 43°35' E 010°18'2 2.3
2014-Aug-29 11:33N 43°32' E 010°17'1 1.4
2014-Aug-29 10:33N 43°34' E 010°18'0 0.3
2014-Aug-29 09:34N 43°34' E 010°18'2 2.4
2014-Aug-29 08:34N 43°32' E 010°16'3 0.2
2014-Aug-28 20:34N 43°34' E 010°18'0 0.5
2014-Aug-28 19:34N 43°34' E 010°18'0 0.5
2014-Aug-28 18:34N 43°34' E 010°18'1 1.2
2014-Aug-28 17:34N 43°33' E 010°17'1 1.2
2014-Aug-28 16:34N 43°34' E 010°18'0 0.0
2014-Aug-28 09:28N 43°34' E 010°18'1 1.0
2014-Aug-28 08:33N 43°33' E 010°18'1 0.1
2014-Aug-27 15:33N 43°34' E 010°18'0 0.1
2014-Aug-27 14:33N 43°34' E 010°18'0 0.1
2014-Aug-27 13:33N 43°34' E 010°18'1 1.1
2014-Aug-27 12:33N 43°33' E 010°17'0 0.1
2014-Aug-27 11:33N 43°33' E 010°17'3 2.6
2014-Aug-27 10:33N 43°35' E 010°19'2 1.6
2014-Aug-27 09:33N 43°34' E 010°18'0 0.0
2014-Aug-27 08:33N 43°34' E 010°18'1 0.8
2014-Aug-27 07:33N 43°33' E 010°17'1 0.8
2014-Aug-27 06:33N 43°34' E 010°18'0 0.0
2014-Aug-27 05:33N 43°34' E 010°18'2 1.7
2014-Aug-27 04:33N 43°32' E 010°17'2 1.7
2014-Aug-27 03:33N 43°34' E 010°18'0 0.0
2014-Aug-27 02:33N 43°34' E 010°18'0 0.0
2014-Aug-27 01:33N 43°34' E 010°18'0 0.0
2014-Aug-27 00:33N 43°34' E 010°18'0 0.0
2014-Aug-26 23:33N 43°34' E 010°18'0 0.0
2014-Aug-26 22:33N 43°34' E 010°18'1 0.9
2014-Aug-26 21:33N 43°35' E 010°18'2 1.6
2014-Aug-26 20:33N 43°33' E 010°18'1 0.7
2014-Aug-26 19:33N 43°34' E 010°18'0 0.0
2014-Aug-26 18:33N 43°34' E 010°18'0 0.0
2014-Aug-26 17:33N 43°34' E 010°18'0 0.0
2014-Aug-26 16:33N 43°34' E 010°18'0 0.0
2014-Aug-26 07:03N 43°34' E 010°18'0 0.0
2014-Aug-25 13:33N 43°34' E 010°18'0 0.0
2014-Aug-25 12:33N 43°34' E 010°18'0 0.0
2014-Aug-25 11:34N 43°34' E 010°18'0 0.0
2014-Aug-25 10:34N 43°34' E 010°18'0 0.0
2014-Aug-25 09:33N 43°34' E 010°18'0 0.0
2014-Aug-25 08:33N 43°34' E 010°18'0 0.0
2014-Aug-25 07:33N 43°34' E 010°18'0 0.0
2014-Aug-25 06:33N 43°34' E 010°18'0 0.0
2014-Aug-25 05:33N 43°34' E 010°18'1 0.0
2014-Aug-23 03:33N 43°33' E 010°18'1 0.8
2014-Aug-23 02:33N 43°34' E 010°18'0 0.0
2014-Aug-23 01:33N 43°34' E 010°18'0 0.0
2014-Aug-23 00:33N 43°34' E 010°18'0 0.0
2014-Aug-22 23:33N 43°34' E 010°18'0 0.0
2014-Aug-22 22:33N 43°34' E 010°18'0 0.0
2014-Aug-22 21:33N 43°34' E 010°18'0 0.0
2014-Aug-22 20:33N 43°34' E 010°18'0 0.0
2014-Aug-22 19:33N 43°34' E 010°18'0 0.0
2014-Aug-22 18:33N 43°34' E 010°18'0 0.0
2014-Aug-22 17:33N 43°34' E 010°18'0 0.0
2014-Aug-22 16:33N 43°34' E 010°18'0 0.0
2014-Aug-22 13:33N 43°34' E 010°18'0 0.0
2014-Aug-22 12:33N 43°34' E 010°18'0 0.0
2014-Aug-22 11:33N 43°34' E 010°18'0 0.0
2014-Aug-22 10:33N 43°34' E 010°18'0 0.0
2014-Aug-22 09:33N 43°34' E 010°18'0 0.0
2014-Aug-22 08:33N 43°34' E 010°18'0 0.0
2014-Aug-22 07:33N 43°34' E 010°18'  
Track history (hours):
 
Tides and Currents Weather Stations Pressure Air Temp Water Temp Dewpoint Dewpoint Depression Visibility Wind Speed Wind Dir Waves Ship Positions

Porto Di Livorno

Last reported at 2014-Sep-01 06:33 UTC. Time now 2014-Sep-01 07:35 UTC.
Position N 43°34' E 010°18'.

Length 24 m; draft 6.1 m.

Type: Tug. MMSI: 247194299.

Date/timePositionNaut miles runAvg speedWind from/ knotsBaromVisibWave heightAir tempDewpointWater temp
2014-Sep-01 06:33N 43°34' E 010°18'0 0.0
2014-Aug-31 09:33N 43°34' E 010°18'0 0.0
2014-Aug-31 08:33N 43°34' E 010°18'0 0.0
2014-Aug-31 07:33N 43°34' E 010°18'0 0.5
2014-Aug-31 06:33N 43°34' E 010°18'0 0.5
2014-Aug-31 05:33N 43°34' E 010°18'0 0.0
2014-Aug-31 04:33N 43°34' E 010°18'0 0.0
2014-Aug-30 16:25N 43°34' E 010°18'0 0.2
2014-Aug-30 15:33N 43°34' E 010°18'0 0.2
2014-Aug-30 14:33N 43°34' E 010°18'0 0.0
2014-Aug-30 13:33N 43°34' E 010°18'0 0.3
2014-Aug-30 12:33N 43°34' E 010°18'0 0.3
2014-Aug-30 11:33N 43°34' E 010°18'0 0.0
2014-Aug-30 10:33N 43°34' E 010°18'0 0.0
2014-Aug-30 09:33N 43°34' E 010°18'1 0.6
2014-Aug-30 08:33N 43°34' E 010°19'1 1.2
2014-Aug-30 07:33N 43°33' E 010°18'1 0.6
2014-Aug-30 06:33N 43°34' E 010°18'1 1.1
2014-Aug-30 05:33N 43°35' E 010°19'1 1.1
2014-Aug-30 04:33N 43°34' E 010°18'0 0.0
2014-Aug-29 15:34N 43°34' E 010°18'0 0.0
2014-Aug-29 14:34N 43°34' E 010°18'0 0.0
2014-Aug-29 13:34N 43°34' E 010°18'1 0.9
2014-Aug-29 12:33N 43°35' E 010°18'2 2.3
2014-Aug-29 11:33N 43°32' E 010°17'1 1.4
2014-Aug-29 10:33N 43°34' E 010°18'0 0.3
2014-Aug-29 09:34N 43°34' E 010°18'2 2.4
2014-Aug-29 08:34N 43°32' E 010°16'3 0.2
2014-Aug-28 20:34N 43°34' E 010°18'0 0.5
2014-Aug-28 19:34N 43°34' E 010°18'0 0.5
2014-Aug-28 18:34N 43°34' E 010°18'1 1.2
2014-Aug-28 17:34N 43°33' E 010°17'1 1.2
2014-Aug-28 16:34N 43°34' E 010°18'0 0.0
2014-Aug-28 09:28N 43°34' E 010°18'1 1.0
2014-Aug-28 08:33N 43°33' E 010°18'1 0.1
2014-Aug-27 15:33N 43°34' E 010°18'0 0.1
2014-Aug-27 14:33N 43°34' E 010°18'0 0.1
2014-Aug-27 13:33N 43°34' E 010°18'1 1.1
2014-Aug-27 12:33N 43°33' E 010°17'0 0.1
2014-Aug-27 11:33N 43°33' E 010°17'3 2.6
2014-Aug-27 10:33N 43°35' E 010°19'2 1.6
2014-Aug-27 09:33N 43°34' E 010°18'0 0.0
2014-Aug-27 08:33N 43°34' E 010°18'1 0.8
2014-Aug-27 07:33N 43°33' E 010°17'1 0.8
2014-Aug-27 06:33N 43°34' E 010°18'0 0.0
2014-Aug-27 05:33N 43°34' E 010°18'2 1.7
2014-Aug-27 04:33N 43°32' E 010°17'2 1.7
2014-Aug-27 03:33N 43°34' E 010°18'0 0.0
2014-Aug-27 02:33N 43°34' E 010°18'0 0.0
2014-Aug-27 01:33N 43°34' E 010°18'0 0.0
2014-Aug-27 00:33N 43°34' E 010°18'0 0.0
2014-Aug-26 23:33N 43°34' E 010°18'0 0.0
2014-Aug-26 22:33N 43°34' E 010°18'1 0.9
2014-Aug-26 21:33N 43°35' E 010°18'2 1.6
2014-Aug-26 20:33N 43°33' E 010°18'1 0.7
2014-Aug-26 19:33N 43°34' E 010°18'0 0.0
2014-Aug-26 18:33N 43°34' E 010°18'0 0.0
2014-Aug-26 17:33N 43°34' E 010°18'0 0.0
2014-Aug-26 16:33N 43°34' E 010°18'0 0.0
2014-Aug-26 07:03N 43°34' E 010°18'0 0.0
2014-Aug-25 13:33N 43°34' E 010°18'0 0.0
2014-Aug-25 12:33N 43°34' E 010°18'0 0.0
2014-Aug-25 11:34N 43°34' E 010°18'0 0.0
2014-Aug-25 10:34N 43°34' E 010°18'0 0.0
2014-Aug-25 09:33N 43°34' E 010°18'0 0.0
2014-Aug-25 08:33N 43°34' E 010°18'0 0.0
2014-Aug-25 07:33N 43°34' E 010°18'0 0.0
2014-Aug-25 06:33N 43°34' E 010°18'0 0.0
2014-Aug-25 05:33N 43°34' E 010°18'1 0.0
2014-Aug-23 03:33N 43°33' E 010°18'1 0.8
2014-Aug-23 02:33N 43°34' E 010°18'0 0.0
2014-Aug-23 01:33N 43°34' E 010°18'0 0.0
2014-Aug-23 00:33N 43°34' E 010°18'0 0.0
2014-Aug-22 23:33N 43°34' E 010°18'0 0.0
2014-Aug-22 22:33N 43°34' E 010°18'0 0.0
2014-Aug-22 21:33N 43°34' E 010°18'0 0.0
2014-Aug-22 20:33N 43°34' E 010°18'0 0.0
2014-Aug-22 19:33N 43°34' E 010°18'0 0.0
2014-Aug-22 18:33N 43°34' E 010°18'0 0.0
2014-Aug-22 17:33N 43°34' E 010°18'0 0.0
2014-Aug-22 16:33N 43°34' E 010°18'0 0.0
2014-Aug-22 13:33N 43°34' E 010°18'0 0.0
2014-Aug-22 12:33N 43°34' E 010°18'0 0.0
2014-Aug-22 11:33N 43°34' E 010°18'0 0.0
2014-Aug-22 10:33N 43°34' E 010°18'0 0.0
2014-Aug-22 09:33N 43°34' E 010°18'0 0.0
2014-Aug-22 08:33N 43°34' E 010°18'0 0.0
2014-Aug-22 07:33N 43°34' E 010°18'  

Dump ship's entire track history